Terminal Aerodrome Forecast
Issued by NWS Omaha/Valley, NE

Home | Current Version | Previous Version | Graphics & Text | Print | Product List | Glossary On
Versions: 1 2 3 4 5 6 7 8 9 10 11 12 13 14 15 16 17 18 19 20
000
FTUS43 KOAX 241439 AAA
TAFOFK
TAF AMD
KOFK 241439Z 2415/2512 15013KT P6SM -RA VCTS SCT090CB BKN110
     FM241900 17012KT P6SM BKN090
      TEMPO 2419/2421 4SM TSRA BR OVC040CB
     FM250000 20008KT P6SM BKN200
     FM250600 29010KT P6SM SKC=

USA.gov is the U.S. government's official web portal to all federal, state and local government web resources and services.